Time;durP1;ratioP1;P1;durP2;ratioP2;P2;SDS_P1;SDS_P2;PMS_P1;PMS_P2;Temp;Humidity;BMP_temperature;BMP_pressure;BME280_temperature;BME280_humidity;BME280_pressure;Samples;Min_cycle;Max_cycle;Signal;HPM_P1;HPM_P2
2021/11/14 00:02:34;;;;;;;8.10;3.83;;;;;;;7.00;100.00;101553.19;6297258;28;20053;-71
2021/11/14 00:05:37;;;;;;;9.98;4.55;;;;;;;7.01;100.00;101558.38;6317817;28;20055;-71
2021/11/14 00:08:39;;;;;;;9.80;4.03;;;;;;;6.99;100.00;101562.75;6319557;28;20051;-71
2021/11/14 00:11:41;;;;;;;8.75;3.88;;;;;;;6.99;100.00;101557.53;6296437;28;20047;-68
2021/11/14 00:14:43;;;;;;;8.93;4.45;;;;;;;7.01;100.00;101560.97;6304725;28;20044;-69
2021/11/14 00:17:45;;;;;;;10.63;4.43;;;;;;;7.02;100.00;101561.81;6310051;28;20075;-69
2021/11/14 00:20:47;;;;;;;8.65;4.10;;;;;;;6.99;100.00;101561.91;6296596;28;20106;-69
2021/11/14 00:23:49;;;;;;;10.40;4.32;;;;;;;6.96;100.00;101572.44;6296933;28;20048;-68
2021/11/14 00:26:51;;;;;;;9.73;4.25;;;;;;;6.98;100.00;101575.88;6314451;28;20442;-69
2021/11/14 00:29:55;;;;;;;5.80;3.40;;;;;;;6.96;100.00;101575.91;6299927;28;20177;-68
2021/11/14 00:32:56;;;;;;;6.28;3.63;;;;;;;6.95;100.00;101575.94;6319683;28;20052;-68
2021/11/14 00:35:58;;;;;;;7.72;3.38;;;;;;;6.94;100.00;101575.06;6321933;28;20127;-68
2021/11/14 00:39:00;;;;;;;6.88;3.42;;;;;;;6.92;100.00;101581.25;6321392;28;20044;-70
2021/11/14 00:42:01;;;;;;;8.32;3.55;;;;;;;6.88;100.00;101579.63;6320582;28;20040;-69
2021/11/14 00:45:05;;;;;;;8.95;3.72;;;;;;;6.89;100.00;101581.31;6298738;28;20052;-69
2021/11/14 00:48:07;;;;;;;10.65;4.60;;;;;;;6.90;100.00;101583.88;6296493;28;20056;-69
2021/11/14 00:51:09;;;;;;;7.13;3.70;;;;;;;6.90;100.00;101590.88;6295953;28;20045;-69
2021/11/14 00:54:11;;;;;;;7.90;3.05;;;;;;;6.90;100.00;101586.50;6296289;28;20076;-69
2021/11/14 00:57:12;;;;;;;7.95;3.95;;;;;;;6.90;100.00;101594.34;6296312;28;20054;-69
2021/11/14 01:00:18;;;;;;;9.23;4.25;;;;;;;6.90;100.00;101599.56;6296200;28;20040;-68
2021/11/14 01:03:20;;;;;;;7.97;4.25;;;;;;;6.90;100.00;101603.94;6304594;28;20059;-68
2021/11/14 01:06:21;;;;;;;6.85;3.60;;;;;;;6.87;100.00;101607.50;6321209;28;20090;-68
2021/11/14 01:09:22;;;;;;;11.52;4.35;;;;;;;6.88;100.00;101617.03;6320989;28;20055;-68
2021/11/14 01:12:24;;;;;;;7.93;3.67;;;;;;;6.88;100.00;101616.19;6320713;28;20534;-68
2021/11/14 01:15:27;;;;;;;8.75;3.50;;;;;;;6.89;100.00;101620.50;6320467;28;20051;-68
2021/11/14 01:18:29;;;;;;;6.93;3.50;;;;;;;6.86;100.00;101621.47;6321242;28;20506;-68
2021/11/14 01:21:30;;;;;;;11.55;4.70;;;;;;;6.81;100.00;101621.56;6320587;28;20040;-68
2021/11/14 01:24:31;;;;;;;7.13;3.30;;;;;;;6.76;100.00;101620.78;6320794;28;20060;-68
2021/11/14 01:27:33;;;;;;;10.98;3.78;;;;;;;6.75;100.00;101619.09;6320906;28;20048;-69
2021/11/14 01:30:39;;;;;;;7.32;4.03;;;;;;;6.78;100.00;101620.78;6320420;28;20044;-68
2021/11/14 01:33:40;;;;;;;8.90;3.60;;;;;;;6.79;100.00;101623.34;6318897;28;20052;-68
2021/11/14 01:36:42;;;;;;;6.93;3.03;;;;;;;6.80;100.00;101625.06;6320644;28;20090;-69
2021/11/14 01:39:43;;;;;;;8.10;4.22;;;;;;;6.81;100.00;101629.41;6320533;28;20055;-68
2021/11/14 01:42:45;;;;;;;12.00;4.95;;;;;;;6.85;100.00;101632.78;6324465;28;20044;-69
2021/11/14 01:45:48;;;;;;;9.68;4.25;;;;;;;6.86;100.00;101629.31;6325649;28;20055;-68
2021/11/14 01:48:52;;;;;;;8.13;3.47;;;;;;;6.87;100.00;101631.00;6325283;28;20052;-69
2021/11/14 01:51:53;;;;;;;9.70;5.18;;;;;;;6.88;100.00;101630.09;6325095;28;20040;-69
2021/11/14 01:54:55;;;;;;;9.57;4.35;;;;;;;6.85;100.00;101630.16;6325218;28;20044;-69
2021/11/14 01:57:58;;;;;;;8.07;3.80;;;;;;;6.86;100.00;101644.97;6325262;28;20052;-69
2021/11/14 02:01:08;;;;;;;7.38;3.30;;;;;;;6.87;100.00;101644.06;6324950;28;20051;-69
2021/11/14 02:04:10;;;;;;;7.43;3.75;;;;;;;6.88;100.00;101637.94;6322750;28;20048;-69
2021/11/14 02:07:14;;;;;;;10.43;3.75;;;;;;;6.83;100.00;101639.81;6324612;28;20044;-68
2021/11/14 02:10:16;;;;;;;9.43;4.53;;;;;;;6.81;100.00;101641.59;6316842;28;20518;-70
2021/11/14 02:13:18;;;;;;;7.72;3.42;;;;;;;6.79;100.00;101646.00;6312319;28;20052;-68
2021/11/14 02:16:24;;;;;;;9.88;4.22;;;;;;;6.77;100.00;101651.28;6314687;28;20052;-68
2021/11/14 02:19:25;;;;;;;6.95;3.70;;;;;;;6.78;100.00;101649.50;6316887;28;20407;-70
2021/11/14 02:22:28;;;;;;;8.77;3.85;;;;;;;6.78;100.00;101655.59;6324429;28;20040;-68
2021/11/14 02:25:29;;;;;;;8.40;3.70;;;;;;;6.76;100.00;101665.19;6324715;28;20491;-68
2021/11/14 02:28:32;;;;;;;8.48;3.63;;;;;;;6.74;100.00;101666.16;6324579;28;20048;-68
2021/11/14 02:31:34;;;;;;;9.13;4.55;;;;;;;6.70;100.00;101665.34;6324147;28;20044;-70
2021/11/14 02:34:35;;;;;;;9.90;4.10;;;;;;;6.76;100.00;101673.03;6322298;28;20414;-68
2021/11/14 02:37:38;;;;;;;8.38;4.35;;;;;;;6.79;100.00;101679.97;6321851;28;20052;-71
2021/11/14 02:40:42;;;;;;;11.00;4.50;;;;;;;6.81;100.00;101689.50;6298583;28;20384;-68
2021/11/14 02:43:46;;;;;;;8.73;3.80;;;;;;;6.82;100.00;101685.97;6299352;28;20048;-70
2021/11/14 02:46:47;;;;;;;10.38;4.72;;;;;;;6.82;100.00;101695.56;6298858;28;20049;-68
2021/11/14 02:49:48;;;;;;;7.47;3.83;;;;;;;6.86;100.00;101697.22;6298634;28;20075;-68
2021/11/14 02:52:52;;;;;;;7.65;3.90;;;;;;;6.88;100.00;101698.03;6298209;28;20048;-68
2021/11/14 02:55:54;;;;;;;9.20;4.22;;;;;;;6.89;100.00;101698.91;6298686;28;20138;-71
2021/11/14 02:58:56;;;;;;;9.98;5.00;;;;;;;6.90;100.00;101708.44;6298716;28;20056;-71
2021/11/14 03:01:57;;;;;;;12.68;5.68;;;;;;;6.89;100.00;101707.59;6298132;28;20514;-70
2021/11/14 03:04:59;;;;;;;9.90;4.18;;;;;;;6.89;100.00;101704.13;6299687;28;20135;-70
2021/11/14 03:08:02;;;;;;;11.27;5.03;;;;;;;6.90;100.00;101711.91;6298225;28;20051;-70
2021/11/14 03:11:05;;;;;;;10.55;3.67;;;;;;;6.90;100.00;101714.53;6298174;28;20052;-70
2021/11/14 03:14:08;;;;;;;11.07;4.53;;;;;;;6.92;100.00;101714.50;6297918;28;20044;-70
2021/11/14 03:17:09;;;;;;;15.77;4.18;;;;;;;6.91;100.00;101721.50;6298310;28;20044;-70
2021/11/14 03:20:12;;;;;;;8.73;4.72;;;;;;;6.86;100.00;101708.53;6297312;28;20052;-70
2021/11/14 03:23:15;;;;;;;9.50;4.78;;;;;;;6.86;100.00;101721.59;6297999;28;20063;-69
2021/11/14 03:26:17;;;;;;;7.43;4.22;;;;;;;6.85;100.00;101712.03;6297814;28;20048;-70
2021/11/14 03:29:18;;;;;;;8.13;3.80;;;;;;;6.87;100.00;101719.84;6297788;28;20055;-70
2021/11/14 03:32:19;;;;;;;10.18;4.00;;;;;;;6.89;100.00;101725.88;6297637;28;20044;-70
2021/11/14 03:35:23;;;;;;;8.45;3.88;;;;;;;6.89;100.00;101719.81;6297771;28;20048;-70
2021/11/14 03:38:28;;;;;;;9.63;4.57;;;;;;;6.88;100.00;101728.53;6297631;28;20051;-70
2021/11/14 03:41:33;;;;;;;10.75;4.70;;;;;;;6.88;100.00;101725.94;6297444;28;20056;-70
2021/11/14 03:44:34;;;;;;;10.35;5.00;;;;;;;6.90;100.00;101730.22;6297334;28;20055;-70
2021/11/14 03:47:38;;;;;;;13.73;5.20;;;;;;;6.91;100.00;101731.09;6297503;28;20085;-70
2021/11/14 03:50:40;;;;;;;11.80;4.85;;;;;;;6.91;100.00;101738.94;6297002;28;20162;-70
2021/11/14 03:53:43;;;;;;;11.25;4.32;;;;;;;6.91;100.00;101731.94;6297277;28;20048;-70
2021/11/14 03:56:44;;;;;;;11.20;5.25;;;;;;;6.90;100.00;101740.66;6297074;28;20048;-70
2021/11/14 03:59:46;;;;;;;10.05;4.93;;;;;;;6.90;100.00;101745.03;6296848;28;20052;-70
2021/11/14 04:02:48;;;;;;;12.25;4.50;;;;;;;6.87;100.00;101751.19;6307127;28;20047;-70
2021/11/14 04:05:50;;;;;;;8.43;4.10;;;;;;;6.83;100.00;101755.63;6320756;28;20136;-70
2021/11/14 04:08:56;;;;;;;12.38;4.38;;;;;;;6.83;100.00;101762.59;6317709;28;20143;-70
2021/11/14 04:11:57;;;;;;;13.45;5.00;;;;;;;6.83;100.00;101767.84;6296409;28;20052;-70
2021/11/14 04:14:59;;;;;;;11.48;4.50;;;;;;;6.83;100.00;101765.22;6314569;28;20083;-70
2021/11/14 04:18:00;;;;;;;12.05;4.57;;;;;;;6.81;100.00;101773.09;6299360;28;20664;-70
2021/11/14 04:21:03;;;;;;;8.52;4.53;;;;;;;6.85;100.00;101773.88;6296476;28;20052;-70
2021/11/14 04:24:06;;;;;;;12.10;5.13;;;;;;;6.84;100.00;101773.00;6320482;28;20052;-70
2021/11/14 04:27:08;;;;;;;9.48;4.53;;;;;;;6.88;100.00;101779.03;6321046;28;20418;-70
2021/11/14 04:30:10;;;;;;;13.27;4.93;;;;;;;6.89;100.00;101777.28;6318021;28;20044;-70
2021/11/14 04:33:11;;;;;;;16.58;5.70;;;;;;;6.89;100.00;101778.13;6319625;28;20044;-70
2021/11/14 04:36:13;;;;;;;12.05;5.65;;;;;;;6.90;100.00;101779.00;6319820;28;20066;-70
2021/11/14 04:39:15;;;;;;;10.75;5.20;;;;;;;6.89;100.00;101772.91;6306544;28;20581;-68
2021/11/14 04:42:17;;;;;;;10.93;4.35;;;;;;;6.92;100.00;101782.44;6310142;28;20454;-70
2021/11/14 04:45:19;;;;;;;16.50;7.07;;;;;;;6.92;100.00;101785.06;6306805;28;20063;-70
2021/11/14 04:48:22;;;;;;;17.27;6.95;;;;;;;6.90;100.00;101786.84;6320425;28;20398;-70
2021/11/14 04:51:23;;;;;;;14.85;6.95;;;;;;;6.88;100.00;101794.72;6320374;28;20048;-70
2021/11/14 04:54:26;;;;;;;17.90;7.03;;;;;;;6.85;100.00;101797.38;6296111;28;20044;-70
2021/11/14 04:57:27;;;;;;;21.70;7.15;;;;;;;6.89;100.00;101801.66;6296310;28;20081;-70
2021/11/14 05:00:32;;;;;;;21.98;6.78;;;;;;;6.90;100.00;101795.53;6295882;28;20071;-70
2021/11/14 05:03:33;;;;;;;24.45;6.20;;;;;;;6.92;100.00;101805.97;6296981;28;20048;-70
2021/11/14 05:06:35;;;;;;;19.55;7.93;;;;;;;6.91;100.00;101812.09;6296205;28;20045;-70
2021/11/14 05:09:38;;;;;;;26.45;7.43;;;;;;;6.92;100.00;101816.41;6295803;28;20056;-70
2021/11/14 05:12:39;;;;;;;17.42;6.63;;;;;;;6.89;100.00;101824.31;6295852;28;20072;-70
2021/11/14 05:15:41;;;;;;;16.33;6.28;;;;;;;6.90;100.00;101826.88;6297938;28;20048;-70
2021/11/14 05:18:42;;;;;;;22.75;6.93;;;;;;;6.91;100.00;101833.00;6301069;28;20520;-70
2021/11/14 05:21:44;;;;;;;25.25;8.00;;;;;;;6.91;100.00;101830.38;6300562;28;20063;-70
2021/11/14 05:24:46;;;;;;;13.20;5.55;;;;;;;6.91;100.00;101835.63;6300903;28;20045;-70
2021/11/14 05:27:48;;;;;;;22.92;8.15;;;;;;;6.89;100.00;101838.22;6300687;28;20051;-68
2021/11/14 05:30:50;;;;;;;30.55;8.13;;;;;;;6.89;100.00;101840.00;6301684;28;20048;-70
2021/11/14 05:33:51;;;;;;;21.73;6.70;;;;;;;6.86;100.00;101847.00;6300940;28;20057;-70
2021/11/14 05:36:52;;;;;;;18.35;7.10;;;;;;;6.88;100.00;101849.59;6300353;28;20075;-70
2021/11/14 05:39:55;;;;;;;27.10;8.30;;;;;;;6.85;100.00;101844.41;6300551;28;20051;-70
2021/11/14 05:42:57;;;;;;;31.23;8.05;;;;;;;6.87;100.00;101850.47;6300220;28;20044;-70
2021/11/14 05:45:58;;;;;;;19.73;6.97;;;;;;;6.89;100.00;101855.66;6300399;28;20053;-71
2021/11/14 05:48:59;;;;;;;28.40;7.13;;;;;;;6.91;100.00;101859.13;6300263;28;20055;-70
2021/11/14 05:52:01;;;;;;;23.65;7.32;;;;;;;6.93;100.00;101866.03;6300059;28;20072;-69
2021/11/14 05:55:06;;;;;;;19.92;6.05;;;;;;;6.95;100.00;101879.06;6300123;28;20044;-69
2021/11/14 05:58:10;;;;;;;22.65;7.78;;;;;;;6.95;100.00;101886.88;6300181;28;20052;-69
2021/11/14 06:01:15;;;;;;;23.55;7.68;;;;;;;6.96;100.00;101884.28;6301076;28;20076;-68
2021/11/14 06:04:23;;;;;;;20.85;6.80;;;;;;;6.93;100.00;101888.69;6307589;28;20040;-68
2021/11/14 06:07:27;;;;;;;21.67;8.33;;;;;;;6.92;100.00;101889.59;6317159;28;20044;-68
2021/11/14 06:10:30;;;;;;;25.77;6.93;;;;;;;6.94;100.00;101900.84;6315236;28;20295;-69
2021/11/14 06:13:32;;;;;;;16.35;5.65;;;;;;;6.93;100.00;101901.75;6299158;28;20045;-68
2021/11/14 06:16:34;;;;;;;19.58;6.82;;;;;;;6.93;100.00;101907.84;6313053;28;20040;-68
2021/11/14 06:19:35;;;;;;;20.17;5.32;;;;;;;6.95;100.00;101905.19;6305688;28;20511;-69
2021/11/14 06:22:37;;;;;;;18.00;5.35;;;;;;;6.97;100.00;101911.25;6299568;28;20051;-69
2021/11/14 06:25:40;;;;;;;24.17;5.85;;;;;;;6.97;100.00;101914.72;6299353;28;20040;-69
2021/11/14 06:28:41;;;;;;;20.75;6.57;;;;;;;6.98;100.00;101920.81;6298863;28;20064;-68
2021/11/14 06:31:43;;;;;;;27.08;7.97;;;;;;;6.98;100.00;101924.28;6299857;28;20418;-69
2021/11/14 06:34:45;;;;;;;22.30;5.45;;;;;;;6.99;100.00;101923.38;6299212;28;20044;-69
2021/11/14 06:37:47;;;;;;;25.88;5.97;;;;;;;6.97;100.00;101925.19;6299047;28;20271;-69
2021/11/14 06:40:50;;;;;;;15.38;6.10;;;;;;;6.98;100.00;101939.09;6311154;28;20048;-69
2021/11/14 06:43:51;;;;;;;23.23;6.60;;;;;;;6.98;100.00;101947.81;6312978;28;20051;-69
2021/11/14 06:46:55;;;;;;;23.25;7.60;;;;;;;7.01;100.00;101946.91;6323943;28;20052;-69
2021/11/14 06:49:56;;;;;;;25.98;6.70;;;;;;;7.00;100.00;101956.50;6324087;28;20137;-69
2021/11/14 06:52:58;;;;;;;24.17;7.13;;;;;;;7.00;100.00;101960.88;6323844;28;20047;-69
2021/11/14 06:56:01;;;;;;;19.63;6.30;;;;;;;6.98;100.00;101966.09;6323919;28;20048;-69
2021/11/14 06:59:03;;;;;;;19.05;5.40;;;;;;;7.00;100.00;101969.56;6323640;28;20121;-69
2021/11/14 07:02:05;;;;;;;17.23;6.20;;;;;;;6.99;100.00;101977.41;6321914;28;20044;-69
2021/11/14 07:05:07;;;;;;;23.98;8.00;;;;;;;7.02;100.00;101982.59;6323693;28;20052;-69
2021/11/14 07:08:09;;;;;;;19.92;5.97;;;;;;;7.02;100.00;101982.59;6323395;28;20553;-68
2021/11/14 07:11:13;;;;;;;17.75;5.30;;;;;;;7.03;100.00;101987.78;6323329;28;20055;-69
2021/11/14 07:14:14;;;;;;;24.67;6.50;;;;;;;7.04;100.00;101993.88;6322769;28;20101;-68
2021/11/14 07:17:16;;;;;;;25.08;7.22;;;;;;;7.04;100.00;101996.47;6323277;28;20048;-68
2021/11/14 07:20:18;;;;;;;15.10;5.53;;;;;;;7.07;100.00;101997.28;6322810;28;20185;-69
2021/11/14 07:23:20;;;;;;;25.15;7.25;;;;;;;7.07;100.00;102005.13;6323075;28;20044;-68
2021/11/14 07:26:23;;;;;;;27.85;6.10;;;;;;;7.07;100.00;102012.97;6322955;28;20525;-68
2021/11/14 07:29:24;;;;;;;25.55;6.15;;;;;;;7.06;100.00;102016.47;6322474;28;20048;-70
2021/11/14 07:32:25;;;;;;;25.30;6.13;;;;;;;7.07;100.00;102022.56;6316935;28;20084;-69
2021/11/14 07:35:27;;;;;;;17.08;6.20;;;;;;;7.08;100.00;102026.91;6322893;28;20486;-68
2021/11/14 07:38:29;;;;;;;18.63;5.80;;;;;;;7.10;100.00;102028.59;6323063;28;20048;-68
2021/11/14 07:41:31;;;;;;;17.20;6.38;;;;;;;7.12;100.00;102045.13;6322618;28;20533;-68
2021/11/14 07:44:33;;;;;;;33.78;7.18;;;;;;;7.14;100.00;102045.09;6322544;28;20048;-68
2021/11/14 07:47:35;;;;;;;47.17;10.57;;;;;;;7.12;100.00;102060.78;6322757;28;20067;-69
2021/11/14 07:50:37;;;;;;;27.02;7.50;;;;;;;7.11;100.00;102051.25;6322263;28;20525;-68
2021/11/14 07:53:39;;;;;;;18.95;5.63;;;;;;;7.12;100.00;102059.94;6322299;28;20047;-69
2021/11/14 07:56:42;;;;;;;26.70;7.30;;;;;;;7.14;100.00;102066.03;6322403;28;20044;-69
2021/11/14 07:59:43;;;;;;;30.25;7.53;;;;;;;7.18;100.00;102069.44;6321233;28;20063;-69
2021/11/14 08:02:45;;;;;;;21.17;6.63;;;;;;;7.21;100.00;102065.00;6297054;28;20062;-69
2021/11/14 08:05:47;;;;;;;25.45;7.97;;;;;;;7.23;100.00;102073.69;6317391;28;20048;-69
2021/11/14 08:08:48;;;;;;;25.80;6.72;;;;;;;7.26;100.00;102075.38;6312625;28;20055;-68
2021/11/14 08:11:51;;;;;;;24.42;7.53;;;;;;;7.28;100.00;102073.63;6321515;28;20494;-68
2021/11/14 08:14:52;;;;;;;35.40;7.20;;;;;;;7.30;100.00;102077.91;6321830;28;20074;-69
2021/11/14 08:17:54;;;;;;;25.20;7.57;;;;;;;7.30;100.00;102077.91;6308527;28;20049;-68
2021/11/14 08:20:55;;;;;;;21.08;7.00;;;;;;;7.32;100.00;102085.75;6296610;28;20044;-68
2021/11/14 08:23:56;;;;;;;17.63;6.47;;;;;;;7.33;100.00;102085.72;6299718;28;20055;-68
2021/11/14 08:26:59;;;;;;;22.13;6.72;;;;;;;7.36;100.00;102092.66;6320086;28;20044;-70
2021/11/14 08:30:01;;;;;;;22.33;7.72;;;;;;;7.39;100.00;102097.78;6316066;28;20505;-70
2021/11/14 08:33:03;;;;;;;26.27;6.93;;;;;;;7.38;100.00;102099.56;6306319;28;20135;-68
2021/11/14 08:36:05;;;;;;;27.13;7.30;;;;;;;7.41;100.00;102101.25;6308463;28;20411;-70
2021/11/14 08:39:07;;;;;;;28.60;6.72;;;;;;;7.42;100.00;102100.38;6319680;28;20044;-69
2021/11/14 08:42:11;;;;;;;25.73;7.90;;;;;;;7.44;100.00;102102.94;6316926;28;20097;-68
2021/11/14 08:45:13;;;;;;;27.98;8.88;;;;;;;7.45;100.00;102108.16;6320755;28;20040;-69
2021/11/14 08:48:15;;;;;;;21.08;8.60;;;;;;;7.48;100.00;102099.38;6321523;28;20491;-69
2021/11/14 08:51:17;;;;;;;19.23;6.70;;;;;;;7.52;100.00;102117.59;6320492;28;20040;-68
2021/11/14 08:54:18;;;;;;;28.10;9.00;;;;;;;7.56;100.00;102113.19;6296422;28;20044;-69
2021/11/14 08:57:21;;;;;;;28.25;7.70;;;;;;;7.58;100.00;102121.84;6317241;28;20055;-70
2021/11/14 09:00:27;;;;;;;27.20;7.72;;;;;;;7.63;100.00;102126.13;6310031;28;20237;-68
2021/11/14 09:03:29;;;;;;;21.38;7.97;;;;;;;7.63;100.00;102128.75;6320677;28;20040;-70
2021/11/14 09:06:30;;;;;;;18.27;7.28;;;;;;;7.64;100.00;102129.59;6319857;28;20643;-70
2021/11/14 09:09:31;;;;;;;27.05;9.23;;;;;;;7.69;100.00;102143.47;6307499;28;20059;-70
2021/11/14 09:12:34;;;;;;;30.98;8.80;;;;;;;7.70;100.00;102139.94;6320484;28;20048;-70
2021/11/14 09:15:36;;;;;;;21.33;8.00;;;;;;;7.74;100.00;102148.59;6319844;28;20052;-70
2021/11/14 09:18:37;;;;;;;26.20;8.32;;;;;;;7.71;100.00;102146.91;6317717;28;20055;-69
2021/11/14 09:21:39;;;;;;;34.13;9.75;;;;;;;7.75;100.00;102151.19;6320113;28;20422;-69
2021/11/14 09:24:41;;;;;;;21.05;7.28;;;;;;;7.82;100.00;102157.19;6301472;28;20063;-70
2021/11/14 09:27:44;;;;;;;31.63;10.75;;;;;;;7.84;100.00;102156.25;6296027;28;20055;-69
2021/11/14 09:30:49;;;;;;;21.88;8.93;;;;;;;7.88;100.00;102171.00;6309431;28;20048;-69
2021/11/14 09:33:54;;;;;;;28.30;9.07;;;;;;;7.89;100.00;102164.00;6319792;28;20601;-69
2021/11/14 09:36:55;;;;;;;30.48;8.75;;;;;;;7.92;100.00;102166.56;6295726;28;20080;-69
2021/11/14 09:39:56;;;;;;;32.95;8.45;;;;;;;7.94;100.00;102177.00;6317174;28;20825;-70
2021/11/14 09:43:01;;;;;;;22.17;8.60;;;;;;;7.96;100.00;102178.72;6320472;28;20495;-69
2021/11/14 09:46:02;;;;;;;25.35;7.70;;;;;;;7.99;100.00;102177.78;6320793;28;20059;-69
2021/11/14 09:49:05;;;;;;;32.38;10.52;;;;;;;7.98;100.00;102179.53;6320502;28;20044;-69
2021/11/14 09:52:07;;;;;;;32.22;10.68;;;;;;;8.02;100.00;102188.19;6320044;28;20071;-69
2021/11/14 09:55:11;;;;;;;27.73;9.75;;;;;;;8.05;100.00;102185.53;6320562;28;20056;-69
2021/11/14 09:58:14;;;;;;;25.77;9.27;;;;;;;8.03;100.00;102188.16;6320584;28;20486;-70
2021/11/14 10:01:15;;;;;;;28.48;8.80;;;;;;;8.02;100.00;102196.91;6299448;28;20499;-69
2021/11/14 10:04:17;;;;;;;27.33;11.07;;;;;;;8.01;100.00;102189.09;6307861;28;20044;-70
2021/11/14 10:07:19;;;;;;;27.83;9.18;;;;;;;8.04;100.00;102191.63;6324739;28;20048;-70
2021/11/14 10:10:25;;;;;;;22.15;7.43;;;;;;;8.05;100.00;102190.75;6324218;28;20502;-69
2021/11/14 10:13:31;;;;;;;23.85;9.02;;;;;;;8.05;100.00;102190.75;6319987;28;20044;-69
2021/11/14 10:16:35;;;;;;;24.92;9.82;;;;;;;8.04;100.00;102196.88;6324802;28;20044;-70
2021/11/14 10:19:36;;;;;;;27.73;7.93;;;;;;;8.04;100.00;102196.88;6324536;28;20059;-69
2021/11/14 10:22:40;;;;;;;23.83;8.27;;;;;;;8.04;100.00;102202.09;6324222;28;20156;-69
2021/11/14 10:25:42;;;;;;;22.58;8.27;;;;;;;8.04;100.00;102207.34;6324463;28;20087;-69
2021/11/14 10:28:47;;;;;;;30.65;9.13;;;;;;;8.03;100.00;102206.47;6324361;28;20063;-69
2021/11/14 10:31:48;;;;;;;22.85;8.25;;;;;;;8.05;100.00;102211.72;6315690;28;20048;-69
2021/11/14 10:34:56;;;;;;;22.85;8.23;;;;;;;8.07;100.00;102209.91;6324093;28;20040;-69
2021/11/14 10:38:00;;;;;;;30.88;9.52;;;;;;;8.08;100.00;102219.47;6302442;28;20086;-69
2021/11/14 10:41:05;;;;;;;29.23;8.02;;;;;;;8.11;100.00;102216.81;6304734;28;20044;-70
2021/11/14 10:44:13;;;;;;;27.40;8.23;;;;;;;8.09;100.00;102211.63;6321864;28;20133;-70
2021/11/14 10:47:14;;;;;;;24.38;10.00;;;;;;;8.10;100.00;102210.72;6321913;28;20052;-70
2021/11/14 10:50:15;;;;;;;27.70;9.07;;;;;;;8.13;100.00;102220.28;6320816;28;20048;-70
2021/11/14 10:53:19;;;;;;;31.00;9.43;;;;;;;8.15;100.00;102221.09;6323022;28;20040;-70
2021/11/14 10:56:21;;;;;;;30.42;10.00;;;;;;;8.15;100.00;102218.47;6320699;28;20491;-70
2021/11/14 10:59:23;;;;;;;32.80;9.07;;;;;;;8.13;100.00;102222.91;6320224;28;20419;-69
2021/11/14 11:02:26;;;;;;;24.42;9.60;;;;;;;8.13;100.00;102229.00;6322319;28;20051;-69
2021/11/14 11:05:29;;;;;;;29.75;9.63;;;;;;;8.14;100.00;102233.34;6306733;28;20051;-70
2021/11/14 11:08:31;;;;;;;26.48;7.22;;;;;;;8.18;100.00;102235.91;6323580;28;20391;-69
2021/11/14 11:11:35;;;;;;;27.48;7.93;;;;;;;8.19;100.00;102242.88;6323449;28;20048;-70
2021/11/14 11:14:50;;;;;;;29.80;8.57;;;;;;;8.18;100.00;102244.63;6321988;28;20048;-70
2021/11/14 11:17:54;;;;;;;24.13;9.05;;;;;;;8.19;100.00;102248.97;6319241;28;20047;-70
2021/11/14 11:20:57;;;;;;;22.33;7.93;;;;;;;8.17;100.00;102247.25;6301489;28;20048;-70
2021/11/14 11:24:08;;;;;;;19.90;7.18;;;;;;;8.13;100.00;102246.47;6304355;28;20491;-69
2021/11/14 11:27:10;;;;;;;24.77;7.10;;;;;;;8.14;100.00;102248.19;6307975;28;20052;-70
2021/11/14 11:30:13;;;;;;;22.42;8.57;;;;;;;8.16;100.00;102250.75;6313306;28;20051;-69
2021/11/14 11:33:17;;;;;;;22.60;7.93;;;;;;;8.18;100.00;102252.47;6322930;28;20060;-69
2021/11/14 11:36:18;;;;;;;21.60;7.22;;;;;;;8.20;100.00;102255.06;6322996;28;20052;-70
2021/11/14 11:39:20;;;;;;;24.38;7.18;;;;;;;8.26;100.00;102250.53;6322828;28;20052;-70
2021/11/14 11:42:22;;;;;;;27.60;8.18;;;;;;;8.27;100.00;102248.81;6322547;28;20518;-69
2021/11/14 11:45:30;;;;;;;18.98;7.07;;;;;;;8.28;100.00;102250.53;6322673;28;20054;-70
2021/11/14 11:48:37;;;;;;;22.77;7.80;;;;;;;8.28;100.00;102250.53;6319251;28;20075;-70
2021/11/14 11:51:41;;;;;;;19.08;7.60;;;;;;;8.23;100.00;102252.38;6321796;28;20055;-70
2021/11/14 11:54:43;;;;;;;27.90;7.35;;;;;;;8.21;100.00;102246.28;6321145;28;20130;-70
2021/11/14 11:57:44;;;;;;;16.90;7.10;;;;;;;8.19;100.00;102248.97;6322077;28;20527;-70
2021/11/14 12:00:54;;;;;;;21.23;7.68;;;;;;;8.16;100.00;102251.63;6319893;28;20086;-70
2021/11/14 12:04:09;;;;;;;16.80;7.00;;;;;;;8.16;100.00;102248.16;6317688;28;20051;-70
2021/11/14 12:07:12;;;;;;;15.85;6.25;;;;;;;8.16;100.00;102250.75;6321631;28;20044;-70
2021/11/14 12:10:18;;;;;;;22.55;8.07;;;;;;;8.20;100.00;102257.66;6297659;28;20053;-70
2021/11/14 12:13:28;;;;;;;23.45;7.80;;;;;;;8.22;100.00;102255.88;6304450;28;20048;-69
2021/11/14 12:16:32;;;;;;;21.58;7.75;;;;;;;8.25;100.00;102256.69;6314749;28;20044;-70
2021/11/14 12:19:37;;;;;;;18.95;6.90;;;;;;;8.25;100.00;102256.69;6321842;28;20503;-70
2021/11/14 12:22:41;;;;;;;16.50;7.38;;;;;;;8.27;100.00;102257.53;6321448;28;20491;-69
2021/11/14 12:25:46;;;;;;;25.48;8.95;;;;;;;8.29;100.00;102252.25;6321099;28;20048;-70
2021/11/14 12:28:49;;;;;;;21.45;9.35;;;;;;;8.31;100.00;102261.81;6320120;28;20521;-70
2021/11/14 12:31:53;;;;;;;21.30;6.60;;;;;;;8.32;100.00;102270.53;6317224;28;20048;-69
2021/11/14 12:35:02;;;;;;;21.67;8.73;;;;;;;8.32;100.00;102267.91;6296536;28;20049;-71
2021/11/14 12:38:06;;;;;;;22.92;7.30;;;;;;;8.29;100.00;102268.81;6296415;28;20182;-71
2021/11/14 12:41:11;;;;;;;16.42;5.55;;;;;;;8.29;100.00;102267.97;6296341;28;20044;-70
2021/11/14 12:44:12;;;;;;;21.38;7.13;;;;;;;8.31;100.00;102279.25;6296258;28;20045;-68
2021/11/14 12:47:23;;;;;;;15.73;5.60;;;;;;;8.32;100.00;102283.63;6296488;28;20057;-70
2021/11/14 12:50:31;;;;;;;17.20;4.90;;;;;;;8.33;100.00;102278.34;6296095;28;20049;-71
2021/11/14 12:53:46;;;;;;;13.35;4.72;;;;;;;8.33;100.00;102286.22;6296401;28;20844;-71
2021/11/14 12:56:50;;;;;;;11.50;4.60;;;;;;;8.31;100.00;102288.00;6296139;28;20415;-70
2021/11/14 12:59:52;;;;;;;15.32;5.25;;;;;;;8.27;100.00;102293.34;6312758;28;20044;-71
2021/11/14 13:02:55;;;;;;;10.40;5.15;;;;;;;8.27;100.00;102286.34;6320928;28;20044;-71
2021/11/14 13:05:59;;;;;;;16.17;5.15;;;;;;;8.27;100.00;102288.09;6299464;28;20049;-70
2021/11/14 13:09:09;;;;;;;16.90;5.65;;;;;;;8.28;100.00;102287.19;6296264;28;20056;-70
2021/11/14 13:12:17;;;;;;;14.15;4.80;;;;;;;8.25;100.00;102288.09;6315834;28;20406;-71
2021/11/14 13:15:20;;;;;;;10.60;4.60;;;;;;;8.22;100.00;102285.56;6296176;28;20044;-71
2021/11/14 13:18:24;;;;;;;11.35;5.28;;;;;;;8.22;100.00;102298.66;6295831;28;20511;-70
2021/11/14 13:21:27;;;;;;;33.33;4.85;;;;;;;8.20;100.00;102291.72;6295706;28;20052;-70
2021/11/14 13:24:29;;;;;;;11.85;4.18;;;;;;;8.22;100.00;102295.16;6295994;28;20052;-71
2021/11/14 13:27:32;;;;;;;10.32;4.07;;;;;;;8.21;100.00;102293.44;6296351;28;20500;-71
2021/11/14 13:30:33;;;;;;;10.27;4.63;;;;;;;8.23;100.00;102291.66;6316350;28;20036;-71
2021/11/14 13:33:36;;;;;;;13.00;5.28;;;;;;;8.23;100.00;102294.28;6313474;28;20178;-71
2021/11/14 13:36:49;;;;;;;10.02;4.35;;;;;;;8.18;100.00;102290.91;6303188;28;20060;-70
2021/11/14 13:39:55;;;;;;;10.07;4.28;;;;;;;8.13;100.00;102304.06;6300448;28;20053;-73
2021/11/14 13:43:00;;;;;;;10.63;3.50;;;;;;;8.12;100.00;102302.31;6318853;28;20135;-71
2021/11/14 13:46:02;;;;;;;7.63;3.63;;;;;;;8.10;100.00;102307.59;6311387;28;20135;-70
2021/11/14 13:49:04;;;;;;;11.02;5.07;;;;;;;8.13;100.00;102309.31;6299574;28;20064;-69
2021/11/14 13:52:10;;;;;;;10.07;4.10;;;;;;;8.13;100.00;102309.31;6300201;28;20063;-69
2021/11/14 13:55:11;;;;;;;11.88;3.75;;;;;;;8.13;100.00;102309.31;6299963;28;20051;-70
2021/11/14 13:58:13;;;;;;;8.18;3.75;;;;;;;8.12;100.00;102308.41;6306037;28;20051;-70
2021/11/14 14:01:14;;;;;;;12.50;4.75;;;;;;;8.11;100.00;102317.16;6324335;28;20051;-70
2021/11/14 14:04:17;;;;;;;11.05;4.18;;;;;;;8.14;100.00;102316.25;6324976;28;20055;-71